sensor_id;sensor_type;location;lat;lon;timestamp;P1;durP1;ratioP1;P2;durP2;ratioP2
10588;SDS011;5342;55.676;13.346;2022-08-11T00:01:14;6.07;;;3.30;;
10588;SDS011;5342;55.676;13.346;2022-08-11T00:03:45;5.73;;;2.80;;
10588;SDS011;5342;55.676;13.346;2022-08-11T00:06:12;3.63;;;3.10;;
10588;SDS011;5342;55.676;13.346;2022-08-11T00:08:39;3.40;;;3.10;;
10588;SDS011;5342;55.676;13.346;2022-08-11T00:11:06;3.90;;;2.83;;
10588;SDS011;5342;55.676;13.346;2022-08-11T00:13:34;4.93;;;3.07;;
10588;SDS011;5342;55.676;13.346;2022-08-11T00:16:02;4.00;;;2.93;;
10588;SDS011;5342;55.676;13.346;2022-08-11T00:18:36;3.40;;;2.80;;
10588;SDS011;5342;55.676;13.346;2022-08-11T00:21:04;4.93;;;3.17;;
10588;SDS011;5342;55.676;13.346;2022-08-11T00:23:31;3.30;;;2.97;;
10588;SDS011;5342;55.676;13.346;2022-08-11T00:25:58;4.60;;;3.47;;
10588;SDS011;5342;55.676;13.346;2022-08-11T00:30:51;3.90;;;3.13;;
10588;SDS011;5342;55.676;13.346;2022-08-11T00:33:22;7.13;;;3.20;;
10588;SDS011;5342;55.676;13.346;2022-08-11T00:35:50;3.90;;;3.10;;
10588;SDS011;5342;55.676;13.346;2022-08-11T00:38:17;5.20;;;3.47;;
10588;SDS011;5342;55.676;13.346;2022-08-11T00:45:46;4.93;;;3.03;;
10588;SDS011;5342;55.676;13.346;2022-08-11T00:56:15;4.77;;;3.33;;
10588;SDS011;5342;55.676;13.346;2022-08-11T00:58:47;4.50;;;3.40;;
10588;SDS011;5342;55.676;13.346;2022-08-11T01:23:15;4.37;;;3.73;;
10588;SDS011;5342;55.676;13.346;2022-08-11T01:47:41;4.00;;;3.60;;
10588;SDS011;5342;55.676;13.346;2022-08-11T01:50:29;7.00;;;4.03;;
10588;SDS011;5342;55.676;13.346;2022-08-11T01:55:42;4.40;;;4.00;;
10588;SDS011;5342;55.676;13.346;2022-08-11T02:01:03;5.13;;;4.40;;
10588;SDS011;5342;55.676;13.346;2022-08-11T02:06:02;5.43;;;4.50;;
10588;SDS011;5342;55.676;13.346;2022-08-11T02:11:35;4.97;;;4.40;;
10588;SDS011;5342;55.676;13.346;2022-08-11T02:17:18;5.47;;;4.70;;
10588;SDS011;5342;55.676;13.346;2022-08-11T02:25:47;4.27;;;3.73;;
10588;SDS011;5342;55.676;13.346;2022-08-11T02:28:54;4.57;;;4.10;;
10588;SDS011;5342;55.676;13.346;2022-08-11T02:39:34;4.70;;;3.70;;
10588;SDS011;5342;55.676;13.346;2022-08-11T02:42:05;5.63;;;4.70;;
10588;SDS011;5342;55.676;13.346;2022-08-11T02:50:05;4.87;;;4.23;;
10588;SDS011;5342;55.676;13.346;2022-08-11T02:57:50;4.27;;;3.87;;
10588;SDS011;5342;55.676;13.346;2022-08-11T03:00:18;5.57;;;4.53;;
10588;SDS011;5342;55.676;13.346;2022-08-11T03:07:53;5.67;;;4.60;;
10588;SDS011;5342;55.676;13.346;2022-08-11T03:13:18;7.73;;;5.20;;
10588;SDS011;5342;55.676;13.346;2022-08-11T03:24:24;6.93;;;6.23;;
10588;SDS011;5342;55.676;13.346;2022-08-11T03:27:11;10.60;;;8.13;;
10588;SDS011;5342;55.676;13.346;2022-08-11T03:29:42;11.23;;;7.80;;
10588;SDS011;5342;55.676;13.346;2022-08-11T03:32:18;10.43;;;8.60;;
10588;SDS011;5342;55.676;13.346;2022-08-11T03:34:47;9.03;;;7.30;;
10588;SDS011;5342;55.676;13.346;2022-08-11T03:40:12;9.53;;;7.40;;
10588;SDS011;5342;55.676;13.346;2022-08-11T03:42:42;13.00;;;8.90;;
10588;SDS011;5342;55.676;13.346;2022-08-11T04:03:26;15.37;;;13.53;;
10588;SDS011;5342;55.676;13.346;2022-08-11T04:22:21;16.83;;;12.63;;
10588;SDS011;5342;55.676;13.346;2022-08-11T05:01:02;15.50;;;12.53;;
10588;SDS011;5342;55.676;13.346;2022-08-11T05:03:52;22.27;;;16.77;;
10588;SDS011;5342;55.676;13.346;2022-08-11T05:06:50;17.00;;;15.20;;
10588;SDS011;5342;55.676;13.346;2022-08-11T05:12:08;22.60;;;16.27;;
10588;SDS011;5342;55.676;13.346;2022-08-11T05:14:40;20.53;;;16.47;;
10588;SDS011;5342;55.676;13.346;2022-08-11T05:17:33;19.13;;;17.07;;
10588;SDS011;5342;55.676;13.346;2022-08-11T05:20:19;19.57;;;16.33;;
10588;SDS011;5342;55.676;13.346;2022-08-11T05:23:05;17.30;;;15.50;;
10588;SDS011;5342;55.676;13.346;2022-08-11T05:25:54;19.93;;;16.90;;
10588;SDS011;5342;55.676;13.346;2022-08-11T05:28:41;17.07;;;15.17;;
10588;SDS011;5342;55.676;13.346;2022-08-11T05:31:37;14.67;;;12.53;;
10588;SDS011;5342;55.676;13.346;2022-08-11T05:34:24;13.43;;;11.97;;
10588;SDS011;5342;55.676;13.346;2022-08-11T05:37:18;18.63;;;11.17;;
10588;SDS011;5342;55.676;13.346;2022-08-11T05:39:46;12.77;;;9.97;;
10588;SDS011;5342;55.676;13.346;2022-08-11T05:42:32;11.97;;;9.43;;
10588;SDS011;5342;55.676;13.346;2022-08-11T05:45:19;8.93;;;8.03;;
10588;SDS011;5342;55.676;13.346;2022-08-11T05:48:04;10.07;;;7.90;;
10588;SDS011;5342;55.676;13.346;2022-08-11T05:50:53;10.07;;;7.27;;
10588;SDS011;5342;55.676;13.346;2022-08-11T05:53:47;7.73;;;6.47;;
10588;SDS011;5342;55.676;13.346;2022-08-11T05:56:33;8.80;;;6.60;;
10588;SDS011;5342;55.676;13.346;2022-08-11T05:59:05;10.37;;;8.87;;
10588;SDS011;5342;55.676;13.346;2022-08-11T06:01:37;8.77;;;7.83;;
10588;SDS011;5342;55.676;13.346;2022-08-11T06:04:05;8.23;;;7.17;;
10588;SDS011;5342;55.676;13.346;2022-08-11T06:09:39;8.27;;;7.30;;
10588;SDS011;5342;55.676;13.346;2022-08-11T06:12:22;8.33;;;6.30;;
10588;SDS011;5342;55.676;13.346;2022-08-11T06:14:51;8.67;;;6.77;;
10588;SDS011;5342;55.676;13.346;2022-08-11T06:17:26;6.50;;;5.60;;
10588;SDS011;5342;55.676;13.346;2022-08-11T06:20:01;5.60;;;5.00;;
10588;SDS011;5342;55.676;13.346;2022-08-11T06:22:28;7.40;;;6.70;;
10588;SDS011;5342;55.676;13.346;2022-08-11T06:24:56;10.00;;;5.03;;
10588;SDS011;5342;55.676;13.346;2022-08-11T06:27:23;5.47;;;4.20;;
10588;SDS011;5342;55.676;13.346;2022-08-11T06:29:53;5.63;;;3.60;;
10588;SDS011;5342;55.676;13.346;2022-08-11T06:32:25;3.20;;;2.90;;
10588;SDS011;5342;55.676;13.346;2022-08-11T06:37:29;3.10;;;2.60;;
10588;SDS011;5342;55.676;13.346;2022-08-11T06:40:06;4.87;;;2.67;;
10588;SDS011;5342;55.676;13.346;2022-08-11T06:48:04;4.87;;;2.73;;
10588;SDS011;5342;55.676;13.346;2022-08-11T06:50:34;3.67;;;2.57;;
10588;SDS011;5342;55.676;13.346;2022-08-11T06:53:20;6.17;;;3.17;;
10588;SDS011;5342;55.676;13.346;2022-08-11T06:55:47;9.03;;;3.30;;
10588;SDS011;5342;55.676;13.346;2022-08-11T06:58:36;3.33;;;3.03;;
10588;SDS011;5342;55.676;13.346;2022-08-11T07:04:11;3.43;;;3.00;;
10588;SDS011;5342;55.676;13.346;2022-08-11T07:12:40;2.33;;;1.90;;
10588;SDS011;5342;55.676;13.346;2022-08-11T07:15:33;7.30;;;2.80;;
10588;SDS011;5342;55.676;13.346;2022-08-11T07:18:07;3.93;;;2.13;;
10588;SDS011;5342;55.676;13.346;2022-08-11T07:20:53;7.17;;;3.03;;
10588;SDS011;5342;55.676;13.346;2022-08-11T07:23:39;3.40;;;2.10;;
10588;SDS011;5342;55.676;13.346;2022-08-11T07:26:25;2.83;;;2.40;;
10588;SDS011;5342;55.676;13.346;2022-08-11T07:29:11;3.37;;;1.97;;
10588;SDS011;5342;55.676;13.346;2022-08-11T07:32:00;3.90;;;2.30;;
10588;SDS011;5342;55.676;13.346;2022-08-11T07:34:35;3.90;;;2.27;;
10588;SDS011;5342;55.676;13.346;2022-08-11T07:37:08;4.03;;;2.20;;
10588;SDS011;5342;55.676;13.346;2022-08-11T07:39:37;2.97;;;2.17;;
10588;SDS011;5342;55.676;13.346;2022-08-11T07:42:08;2.80;;;2.20;;
10588;SDS011;5342;55.676;13.346;2022-08-11T07:44:35;3.77;;;2.53;;
10588;SDS011;5342;55.676;13.346;2022-08-11T07:47:20;4.73;;;2.40;;
10588;SDS011;5342;55.676;13.346;2022-08-11T07:50:07;4.80;;;2.50;;
10588;SDS011;5342;55.676;13.346;2022-08-11T07:52:53;3.43;;;2.77;;
10588;SDS011;5342;55.676;13.346;2022-08-11T07:55:21;2.13;;;1.90;;
10588;SDS011;5342;55.676;13.346;2022-08-11T07:57:59;4.73;;;2.20;;
10588;SDS011;5342;55.676;13.346;2022-08-11T08:00:46;5.70;;;2.67;;
10588;SDS011;5342;55.676;13.346;2022-08-11T08:03:31;3.00;;;2.40;;
10588;SDS011;5342;55.676;13.346;2022-08-11T08:06:17;4.50;;;2.17;;
10588;SDS011;5342;55.676;13.346;2022-08-11T08:09:03;7.97;;;2.53;;
10588;SDS011;5342;55.676;13.346;2022-08-11T08:11:49;4.07;;;2.20;;
10588;SDS011;5342;55.676;13.346;2022-08-11T08:14:34;2.73;;;2.40;;
10588;SDS011;5342;55.676;13.346;2022-08-11T08:17:20;3.53;;;2.30;;
10588;SDS011;5342;55.676;13.346;2022-08-11T08:20:07;3.83;;;2.40;;
10588;SDS011;5342;55.676;13.346;2022-08-11T08:22:35;3.73;;;2.27;;
10588;SDS011;5342;55.676;13.346;2022-08-11T08:25:02;4.77;;;2.77;;
10588;SDS011;5342;55.676;13.346;2022-08-11T08:27:29;5.87;;;2.70;;
10588;SDS011;5342;55.676;13.346;2022-08-11T08:29:56;4.40;;;2.63;;
10588;SDS011;5342;55.676;13.346;2022-08-11T08:32:41;3.60;;;2.40;;
10588;SDS011;5342;55.676;13.346;2022-08-11T08:35:10;3.00;;;2.30;;
10588;SDS011;5342;55.676;13.346;2022-08-11T08:37:36;4.03;;;2.40;;
10588;SDS011;5342;55.676;13.346;2022-08-11T08:40:05;4.53;;;2.63;;
10588;SDS011;5342;55.676;13.346;2022-08-11T08:42:36;3.67;;;2.47;;
10588;SDS011;5342;55.676;13.346;2022-08-11T08:45:04;2.40;;;2.20;;
10588;SDS011;5342;55.676;13.346;2022-08-11T08:47:34;3.53;;;2.33;;
10588;SDS011;5342;55.676;13.346;2022-08-11T08:50:03;3.67;;;2.50;;
10588;SDS011;5342;55.676;13.346;2022-08-11T08:52:33;5.33;;;2.60;;
10588;SDS011;5342;55.676;13.346;2022-08-11T08:55:04;3.90;;;2.53;;
10588;SDS011;5342;55.676;13.346;2022-08-11T08:57:32;5.33;;;2.73;;
10588;SDS011;5342;55.676;13.346;2022-08-11T08:59:59;4.10;;;2.53;;
10588;SDS011;5342;55.676;13.346;2022-08-11T09:02:27;6.20;;;2.43;;
10588;SDS011;5342;55.676;13.346;2022-08-11T09:04:54;3.93;;;2.73;;
10588;SDS011;5342;55.676;13.346;2022-08-11T09:07:21;2.47;;;2.27;;
10588;SDS011;5342;55.676;13.346;2022-08-11T09:09:49;5.77;;;2.27;;
10588;SDS011;5342;55.676;13.346;2022-08-11T09:12:17;3.97;;;2.60;;
10588;SDS011;5342;55.676;13.346;2022-08-11T09:14:45;4.40;;;2.73;;
10588;SDS011;5342;55.676;13.346;2022-08-11T09:17:25;2.53;;;2.10;;
10588;SDS011;5342;55.676;13.346;2022-08-11T09:19:58;8.50;;;2.80;;
10588;SDS011;5342;55.676;13.346;2022-08-11T09:22:25;5.73;;;2.23;;
10588;SDS011;5342;55.676;13.346;2022-08-11T09:25:11;4.17;;;2.47;;
10588;SDS011;5342;55.676;13.346;2022-08-11T09:27:56;4.40;;;2.33;;
10588;SDS011;5342;55.676;13.346;2022-08-11T09:30:24;4.50;;;2.53;;
10588;SDS011;5342;55.676;13.346;2022-08-11T09:32:55;5.03;;;2.53;;
10588;SDS011;5342;55.676;13.346;2022-08-11T09:35:28;5.10;;;2.50;;
10588;SDS011;5342;55.676;13.346;2022-08-11T09:37:56;5.10;;;2.57;;
10588;SDS011;5342;55.676;13.346;2022-08-11T09:40:42;5.37;;;2.73;;
10588;SDS011;5342;55.676;13.346;2022-08-11T09:43:10;5.33;;;2.40;;
10588;SDS011;5342;55.676;13.346;2022-08-11T09:45:56;5.17;;;2.40;;
10588;SDS011;5342;55.676;13.346;2022-08-11T09:48:24;4.60;;;2.37;;
10588;SDS011;5342;55.676;13.346;2022-08-11T09:50:52;3.00;;;2.17;;
10588;SDS011;5342;55.676;13.346;2022-08-11T09:53:19;3.53;;;2.20;;
10588;SDS011;5342;55.676;13.346;2022-08-11T09:55:46;4.00;;;2.10;;
10588;SDS011;5342;55.676;13.346;2022-08-11T09:58:13;4.83;;;1.90;;
10588;SDS011;5342;55.676;13.346;2022-08-11T10:00:44;3.13;;;2.50;;
10588;SDS011;5342;55.676;13.346;2022-08-11T10:03:14;4.10;;;2.40;;
10588;SDS011;5342;55.676;13.346;2022-08-11T10:05:43;4.93;;;2.43;;
10588;SDS011;5342;55.676;13.346;2022-08-11T10:08:29;3.23;;;2.30;;
10588;SDS011;5342;55.676;13.346;2022-08-11T10:10:57;6.47;;;2.10;;
10588;SDS011;5342;55.676;13.346;2022-08-11T10:13:31;3.97;;;2.10;;
10588;SDS011;5342;55.676;13.346;2022-08-11T10:16:02;4.47;;;2.03;;
10588;SDS011;5342;55.676;13.346;2022-08-11T10:18:35;4.57;;;2.17;;
10588;SDS011;5342;55.676;13.346;2022-08-11T10:23:53;5.53;;;1.73;;
10588;SDS011;5342;55.676;13.346;2022-08-11T10:26:40;5.13;;;2.10;;
10588;SDS011;5342;55.676;13.346;2022-08-11T10:29:24;2.43;;;1.80;;
10588;SDS011;5342;55.676;13.346;2022-08-11T10:32:09;4.23;;;2.17;;
10588;SDS011;5342;55.676;13.346;2022-08-11T10:34:55;4.43;;;2.13;;
10588;SDS011;5342;55.676;13.346;2022-08-11T10:37:22;2.73;;;2.00;;
10588;SDS011;5342;55.676;13.346;2022-08-11T10:39:50;1.80;;;1.70;;
10588;SDS011;5342;55.676;13.346;2022-08-11T10:42:17;3.53;;;2.03;;
10588;SDS011;5342;55.676;13.346;2022-08-11T10:45:04;2.80;;;1.60;;
10588;SDS011;5342;55.676;13.346;2022-08-11T10:47:52;5.43;;;1.93;;
10588;SDS011;5342;55.676;13.346;2022-08-11T10:50:20;2.60;;;1.63;;
10588;SDS011;5342;55.676;13.346;2022-08-11T10:53:05;2.90;;;1.80;;
10588;SDS011;5342;55.676;13.346;2022-08-11T10:55:51;4.37;;;2.07;;
10588;SDS011;5342;55.676;13.346;2022-08-11T10:58:37;3.17;;;1.70;;
10588;SDS011;5342;55.676;13.346;2022-08-11T11:03:49;2.33;;;1.63;;
10588;SDS011;5342;55.676;13.346;2022-08-11T11:06:21;6.30;;;2.10;;
10588;SDS011;5342;55.676;13.346;2022-08-11T11:09:12;3.43;;;1.80;;
10588;SDS011;5342;55.676;13.346;2022-08-11T11:11:37;2.73;;;1.77;;
10588;SDS011;5342;55.676;13.346;2022-08-11T11:14:24;2.53;;;1.97;;
10588;SDS011;5342;55.676;13.346;2022-08-11T11:17:12;2.83;;;1.87;;
10588;SDS011;5342;55.676;13.346;2022-08-11T11:19:40;3.00;;;1.80;;
10588;SDS011;5342;55.676;13.346;2022-08-11T11:22:07;2.70;;;1.70;;
10588;SDS011;5342;55.676;13.346;2022-08-11T11:25:03;3.30;;;1.60;;
10588;SDS011;5342;55.676;13.346;2022-08-11T11:30:06;4.60;;;2.33;;
10588;SDS011;5342;55.676;13.346;2022-08-11T11:37:33;3.60;;;1.70;;
10588;SDS011;5342;55.676;13.346;2022-08-11T11:40:00;2.53;;;1.70;;
10588;SDS011;5342;55.676;13.346;2022-08-11T11:42:28;1.77;;;1.67;;
10588;SDS011;5342;55.676;13.346;2022-08-11T11:44:54;6.40;;;1.93;;
10588;SDS011;5342;55.676;13.346;2022-08-11T11:47:22;2.23;;;1.80;;
10588;SDS011;5342;55.676;13.346;2022-08-11T11:49:49;2.57;;;1.77;;
10588;SDS011;5342;55.676;13.346;2022-08-11T11:52:16;2.50;;;1.80;;
10588;SDS011;5342;55.676;13.346;2022-08-11T11:54:44;6.20;;;1.70;;
10588;SDS011;5342;55.676;13.346;2022-08-11T11:57:15;2.63;;;1.60;;
10588;SDS011;5342;55.676;13.346;2022-08-11T12:00:05;3.17;;;1.70;;
10588;SDS011;5342;55.676;13.346;2022-08-11T12:02:50;2.40;;;1.60;;
10588;SDS011;5342;55.676;13.346;2022-08-11T12:05:17;6.33;;;2.00;;
10588;SDS011;5342;55.676;13.346;2022-08-11T12:07:44;3.90;;;1.80;;
10588;SDS011;5342;55.676;13.346;2022-08-11T12:10:30;2.33;;;1.60;;
10588;SDS011;5342;55.676;13.346;2022-08-11T12:13:00;4.93;;;1.73;;
10588;SDS011;5342;55.676;13.346;2022-08-11T12:15:48;3.60;;;2.00;;
10588;SDS011;5342;55.676;13.346;2022-08-11T12:18:15;2.77;;;1.63;;
10588;SDS011;5342;55.676;13.346;2022-08-11T12:20:43;3.33;;;1.80;;
10588;SDS011;5342;55.676;13.346;2022-08-11T12:23:10;3.77;;;1.70;;
10588;SDS011;5342;55.676;13.346;2022-08-11T12:25:56;2.80;;;1.40;;
10588;SDS011;5342;55.676;13.346;2022-08-11T12:28:41;3.67;;;1.70;;
10588;SDS011;5342;55.676;13.346;2022-08-11T12:31:08;4.43;;;1.67;;
10588;SDS011;5342;55.676;13.346;2022-08-11T12:33:38;2.20;;;1.77;;
10588;SDS011;5342;55.676;13.346;2022-08-11T12:36:09;1.97;;;1.40;;
10588;SDS011;5342;55.676;13.346;2022-08-11T12:38:40;4.93;;;1.80;;
10588;SDS011;5342;55.676;13.346;2022-08-11T12:41:07;2.10;;;1.50;;
10588;SDS011;5342;55.676;13.346;2022-08-11T12:43:53;2.10;;;1.60;;
10588;SDS011;5342;55.676;13.346;2022-08-11T12:46:39;4.50;;;1.40;;
10588;SDS011;5342;55.676;13.346;2022-08-11T12:49:11;3.47;;;1.60;;
10588;SDS011;5342;55.676;13.346;2022-08-11T12:51:56;1.60;;;1.50;;
10588;SDS011;5342;55.676;13.346;2022-08-11T12:54:25;2.73;;;1.60;;
10588;SDS011;5342;55.676;13.346;2022-08-11T12:56:55;2.47;;;1.40;;
10588;SDS011;5342;55.676;13.346;2022-08-11T12:59:42;1.70;;;1.53;;
10588;SDS011;5342;55.676;13.346;2022-08-11T13:02:28;2.60;;;1.63;;
10588;SDS011;5342;55.676;13.346;2022-08-11T13:05:14;2.43;;;1.40;;
10588;SDS011;5342;55.676;13.346;2022-08-11T13:07:41;1.77;;;1.20;;
10588;SDS011;5342;55.676;13.346;2022-08-11T13:10:09;3.87;;;1.67;;
10588;SDS011;5342;55.676;13.346;2022-08-11T13:12:36;1.77;;;1.60;;
10588;SDS011;5342;55.676;13.346;2022-08-11T13:15:19;8.93;;;2.23;;
10588;SDS011;5342;55.676;13.346;2022-08-11T13:17:47;13.27;;;2.90;;
10588;SDS011;5342;55.676;13.346;2022-08-11T13:20:15;4.07;;;1.97;;
10588;SDS011;5342;55.676;13.346;2022-08-11T13:22:45;4.10;;;1.70;;
10588;SDS011;5342;55.676;13.346;2022-08-11T13:25:15;1.83;;;1.50;;
10588;SDS011;5342;55.676;13.346;2022-08-11T13:27:46;1.77;;;1.40;;
10588;SDS011;5342;55.676;13.346;2022-08-11T13:30:13;3.47;;;1.53;;
10588;SDS011;5342;55.676;13.346;2022-08-11T13:32:59;3.53;;;1.80;;
10588;SDS011;5342;55.676;13.346;2022-08-11T13:35:27;3.37;;;1.60;;
10588;SDS011;5342;55.676;13.346;2022-08-11T13:37:54;2.53;;;1.60;;
10588;SDS011;5342;55.676;13.346;2022-08-11T13:40:20;2.77;;;1.40;;
10588;SDS011;5342;55.676;13.346;2022-08-11T13:42:49;8.53;;;2.00;;
10588;SDS011;5342;55.676;13.346;2022-08-11T13:45:17;1.73;;;1.33;;
10588;SDS011;5342;55.676;13.346;2022-08-11T13:47:43;4.70;;;1.70;;
10588;SDS011;5342;55.676;13.346;2022-08-11T13:50:10;7.67;;;1.90;;
10588;SDS011;5342;55.676;13.346;2022-08-11T13:52:38;5.13;;;1.80;;
10588;SDS011;5342;55.676;13.346;2022-08-11T13:55:05;5.30;;;1.80;;
10588;SDS011;5342;55.676;13.346;2022-08-11T13:57:33;2.20;;;1.53;;
10588;SDS011;5342;55.676;13.346;2022-08-11T14:00:00;15.33;;;2.50;;
10588;SDS011;5342;55.676;13.346;2022-08-11T14:02:37;10.33;;;2.10;;
10588;SDS011;5342;55.676;13.346;2022-08-11T14:05:12;7.67;;;1.67;;
10588;SDS011;5342;55.676;13.346;2022-08-11T14:07:49;2.17;;;1.30;;
10588;SDS011;5342;55.676;13.346;2022-08-11T14:10:20;1.53;;;1.20;;
10588;SDS011;5342;55.676;13.346;2022-08-11T14:12:59;3.70;;;1.60;;
10588;SDS011;5342;55.676;13.346;2022-08-11T14:15:45;3.10;;;1.87;;
10588;SDS011;5342;55.676;13.346;2022-08-11T14:18:16;12.30;;;2.27;;
10588;SDS011;5342;55.676;13.346;2022-08-11T14:20:43;5.03;;;1.70;;
10588;SDS011;5342;55.676;13.346;2022-08-11T14:23:37;5.17;;;1.60;;
10588;SDS011;5342;55.676;13.346;2022-08-11T14:26:05;7.43;;;1.90;;
10588;SDS011;5342;55.676;13.346;2022-08-11T14:28:48;3.20;;;1.27;;
10588;SDS011;5342;55.676;13.346;2022-08-11T14:31:17;3.07;;;1.50;;
10588;SDS011;5342;55.676;13.346;2022-08-11T14:33:44;3.30;;;1.30;;
10588;SDS011;5342;55.676;13.346;2022-08-11T14:36:12;2.90;;;1.20;;
10588;SDS011;5342;55.676;13.346;2022-08-11T14:38:39;1.50;;;1.20;;
10588;SDS011;5342;55.676;13.346;2022-08-11T14:41:05;1.37;;;1.10;;
10588;SDS011;5342;55.676;13.346;2022-08-11T14:43:51;3.43;;;1.30;;
10588;SDS011;5342;55.676;13.346;2022-08-11T14:46:38;4.03;;;1.37;;
10588;SDS011;5342;55.676;13.346;2022-08-11T14:49:24;2.30;;;1.17;;
10588;SDS011;5342;55.676;13.346;2022-08-11T14:51:51;2.57;;;1.20;;
10588;SDS011;5342;55.676;13.346;2022-08-11T14:54:23;4.20;;;1.37;;
10588;SDS011;5342;55.676;13.346;2022-08-11T14:57:09;4.83;;;1.40;;
10588;SDS011;5342;55.676;13.346;2022-08-11T14:59:36;2.53;;;1.10;;
10588;SDS011;5342;55.676;13.346;2022-08-11T15:02:03;2.43;;;1.43;;
10588;SDS011;5342;55.676;13.346;2022-08-11T15:04:50;4.53;;;1.30;;
10588;SDS011;5342;55.676;13.346;2022-08-11T15:07:17;2.07;;;1.23;;
10588;SDS011;5342;55.676;13.346;2022-08-11T15:09:57;4.70;;;1.27;;
10588;SDS011;5342;55.676;13.346;2022-08-11T15:12:25;2.90;;;1.27;;
10588;SDS011;5342;55.676;13.346;2022-08-11T15:14:51;1.30;;;1.10;;
10588;SDS011;5342;55.676;13.346;2022-08-11T15:17:37;3.87;;;1.30;;
10588;SDS011;5342;55.676;13.346;2022-08-11T15:20:08;2.03;;;1.10;;
10588;SDS011;5342;55.676;13.346;2022-08-11T15:22:55;2.38;;;1.15;;
10588;SDS011;5342;55.676;13.346;2022-08-11T15:25:42;5.17;;;1.30;;
10588;SDS011;5342;55.676;13.346;2022-08-11T15:28:08;5.53;;;1.30;;
10588;SDS011;5342;55.676;13.346;2022-08-11T15:30:55;5.53;;;1.40;;
10588;SDS011;5342;55.676;13.346;2022-08-11T15:33:42;4.82;;;1.13;;
10588;SDS011;5342;55.676;13.346;2022-08-11T15:36:28;4.40;;;1.52;;
10588;SDS011;5342;55.676;13.346;2022-08-11T15:39:18;3.22;;;1.20;;
10588;SDS011;5342;55.676;13.346;2022-08-11T15:42:18;1.40;;;1.00;;
10588;SDS011;5342;55.676;13.346;2022-08-11T15:44:57;2.60;;;1.05;;
10588;SDS011;5342;55.676;13.346;2022-08-11T15:47:48;2.30;;;1.23;;
10588;SDS011;5342;55.676;13.346;2022-08-11T15:50:22;3.13;;;1.27;;
10588;SDS011;5342;55.676;13.346;2022-08-11T15:53:38;2.13;;;1.48;;
10588;SDS011;5342;55.676;13.346;2022-08-11T15:55:44;1.63;;;1.30;;
10588;SDS011;5342;55.676;13.346;2022-08-11T15:58:11;4.68;;;1.13;;
10588;SDS011;5342;55.676;13.346;2022-08-11T16:00:57;3.45;;;1.30;;
10588;SDS011;5342;55.676;13.346;2022-08-11T16:03:58;1.63;;;1.20;;
10588;SDS011;5342;55.676;13.346;2022-08-11T16:06:47;3.17;;;1.38;;
10588;SDS011;5342;55.676;13.346;2022-08-11T16:09:16;5.18;;;1.52;;
10588;SDS011;5342;55.676;13.346;2022-08-11T16:11:43;5.05;;;1.25;;
10588;SDS011;5342;55.676;13.346;2022-08-11T16:14:11;7.22;;;1.85;;
10588;SDS011;5342;55.676;13.346;2022-08-11T16:16:57;3.63;;;1.47;;
10588;SDS011;5342;55.676;13.346;2022-08-11T16:19:25;1.93;;;1.30;;
10588;SDS011;5342;55.676;13.346;2022-08-11T16:21:54;1.60;;;1.27;;
10588;SDS011;5342;55.676;13.346;2022-08-11T16:24:21;2.42;;;0.93;;
10588;SDS011;5342;55.676;13.346;2022-08-11T16:26:49;3.90;;;1.37;;
10588;SDS011;5342;55.676;13.346;2022-08-11T16:29:20;1.47;;;1.20;;
10588;SDS011;5342;55.676;13.346;2022-08-11T16:31:47;4.13;;;1.07;;
10588;SDS011;5342;55.676;13.346;2022-08-11T16:34:34;3.37;;;1.37;;
10588;SDS011;5342;55.676;13.346;2022-08-11T16:37:22;2.60;;;1.50;;
10588;SDS011;5342;55.676;13.346;2022-08-11T16:40:08;4.13;;;1.20;;
10588;SDS011;5342;55.676;13.346;2022-08-11T16:42:36;3.03;;;1.33;;
10588;SDS011;5342;55.676;13.346;2022-08-11T16:45:21;2.40;;;1.57;;
10588;SDS011;5342;55.676;13.346;2022-08-11T16:48:07;1.43;;;1.30;;
10588;SDS011;5342;55.676;13.346;2022-08-11T16:50:34;3.10;;;1.50;;
10588;SDS011;5342;55.676;13.346;2022-08-11T16:53:02;3.10;;;1.53;;
10588;SDS011;5342;55.676;13.346;2022-08-11T16:55:29;2.90;;;1.43;;
10588;SDS011;5342;55.676;13.346;2022-08-11T16:57:58;3.07;;;1.70;;
10588;SDS011;5342;55.676;13.346;2022-08-11T17:00:44;2.73;;;1.40;;
10588;SDS011;5342;55.676;13.346;2022-08-11T17:03:10;3.90;;;1.53;;
10588;SDS011;5342;55.676;13.346;2022-08-11T17:05:57;2.90;;;1.73;;
10588;SDS011;5342;55.676;13.346;2022-08-11T17:08:46;1.50;;;1.33;;
10588;SDS011;5342;55.676;13.346;2022-08-11T17:11:35;2.07;;;1.63;;
10588;SDS011;5342;55.676;13.346;2022-08-11T17:14:58;3.73;;;1.57;;
10588;SDS011;5342;55.676;13.346;2022-08-11T17:17:17;6.07;;;1.63;;
10588;SDS011;5342;55.676;13.346;2022-08-11T17:19:48;19.10;;;3.10;;
10588;SDS011;5342;55.676;13.346;2022-08-11T17:22:15;9.47;;;2.07;;
10588;SDS011;5342;55.676;13.346;2022-08-11T17:25:02;4.37;;;1.70;;
10588;SDS011;5342;55.676;13.346;2022-08-11T17:27:29;14.07;;;2.73;;
10588;SDS011;5342;55.676;13.346;2022-08-11T17:29:57;7.20;;;2.40;;
10588;SDS011;5342;55.676;13.346;2022-08-11T17:32:48;6.07;;;2.00;;
10588;SDS011;5342;55.676;13.346;2022-08-11T17:35:37;3.93;;;1.70;;
10588;SDS011;5342;55.676;13.346;2022-08-11T17:38:11;10.63;;;1.73;;
10588;SDS011;5342;55.676;13.346;2022-08-11T17:40:40;14.87;;;2.40;;
10588;SDS011;5342;55.676;13.346;2022-08-11T17:43:27;5.80;;;1.93;;
10588;SDS011;5342;55.676;13.346;2022-08-11T17:46:14;6.17;;;2.03;;
10588;SDS011;5342;55.676;13.346;2022-08-11T17:48:59;2.63;;;1.43;;
10588;SDS011;5342;55.676;13.346;2022-08-11T17:51:27;6.20;;;1.73;;
10588;SDS011;5342;55.676;13.346;2022-08-11T17:54:13;4.70;;;1.80;;
10588;SDS011;5342;55.676;13.346;2022-08-11T17:56:58;6.63;;;2.33;;
10588;SDS011;5342;55.676;13.346;2022-08-11T17:59:44;2.73;;;1.47;;
10588;SDS011;5342;55.676;13.346;2022-08-11T18:05:11;20.43;;;2.90;;
10588;SDS011;5342;55.676;13.346;2022-08-11T18:07:39;27.30;;;4.63;;
10588;SDS011;5342;55.676;13.346;2022-08-11T18:10:25;25.77;;;4.30;;
10588;SDS011;5342;55.676;13.346;2022-08-11T18:13:10;49.53;;;5.97;;
10588;SDS011;5342;55.676;13.346;2022-08-11T18:15:56;39.80;;;4.53;;
10588;SDS011;5342;55.676;13.346;2022-08-11T18:18:41;40.13;;;5.93;;
10588;SDS011;5342;55.676;13.346;2022-08-11T18:21:26;42.33;;;5.47;;
10588;SDS011;5342;55.676;13.346;2022-08-11T18:24:12;47.57;;;5.97;;
10588;SDS011;5342;55.676;13.346;2022-08-11T18:26:57;53.37;;;6.03;;
10588;SDS011;5342;55.676;13.346;2022-08-11T18:29:44;64.13;;;6.90;;
10588;SDS011;5342;55.676;13.346;2022-08-11T18:32:30;35.40;;;5.43;;
10588;SDS011;5342;55.676;13.346;2022-08-11T18:35:17;43.50;;;6.13;;
10588;SDS011;5342;55.676;13.346;2022-08-11T18:38:03;30.50;;;4.40;;
10588;SDS011;5342;55.676;13.346;2022-08-11T18:40:50;20.60;;;3.97;;
10588;SDS011;5342;55.676;13.346;2022-08-11T18:43:36;34.13;;;5.67;;
10588;SDS011;5342;55.676;13.346;2022-08-11T18:46:23;35.97;;;5.93;;
10588;SDS011;5342;55.676;13.346;2022-08-11T18:49:10;30.27;;;4.77;;
10588;SDS011;5342;55.676;13.346;2022-08-11T18:51:56;60.40;;;7.73;;
10588;SDS011;5342;55.676;13.346;2022-08-11T18:54:42;34.50;;;5.00;;
10588;SDS011;5342;55.676;13.346;2022-08-11T18:57:28;39.40;;;4.70;;
10588;SDS011;5342;55.676;13.346;2022-08-11T19:00:13;36.87;;;5.30;;
10588;SDS011;5342;55.676;13.346;2022-08-11T19:02:58;38.13;;;5.13;;
10588;SDS011;5342;55.676;13.346;2022-08-11T19:05:45;35.20;;;5.60;;
10588;SDS011;5342;55.676;13.346;2022-08-11T19:08:36;37.23;;;5.23;;
10588;SDS011;5342;55.676;13.346;2022-08-11T19:11:23;27.53;;;5.83;;
10588;SDS011;5342;55.676;13.346;2022-08-11T19:14:10;29.13;;;6.23;;
10588;SDS011;5342;55.676;13.346;2022-08-11T19:16:57;24.43;;;5.43;;
10588;SDS011;5342;55.676;13.346;2022-08-11T19:19:43;25.13;;;4.57;;
10588;SDS011;5342;55.676;13.346;2022-08-11T19:22:29;19.90;;;3.90;;
10588;SDS011;5342;55.676;13.346;2022-08-11T19:25:15;25.97;;;3.80;;
10588;SDS011;5342;55.676;13.346;2022-08-11T19:28:03;37.60;;;4.87;;